Time;durP1;ratioP1;P1;durP2;ratioP2;P2;SDS_P1;SDS_P2;PMS_P1;PMS_P2;Temp;Humidity;BMP_temperature;BMP_pressure;BME280_temperature;BME280_humidity;BME280_pressure;Samples;Min_cycle;Max_cycle;Signal;HPM_P1;HPM_P2
2023/01/13 00:00:55;;;;;;;3.77;0.70;;;7.90;50.90;;;;;;5012719;28;46491;-66
2023/01/13 00:03:21;;;;;;;3.93;0.90;;;7.90;50.90;;;;;;5012947;28;47116;-66
2023/01/13 00:05:46;;;;;;;2.20;0.70;;;7.90;50.90;;;;;;5008948;28;45807;-66
2023/01/13 00:08:12;;;;;;;2.80;0.90;;;7.80;50.80;;;;;;5015434;28;46413;-65
2023/01/13 00:10:38;;;;;;;1.73;0.70;;;7.80;50.80;;;;;;5014203;28;46444;-67
2023/01/13 00:13:04;;;;;;;1.80;0.83;;;7.80;50.80;;;;;;5010226;28;47306;-66
2023/01/13 00:15:30;;;;;;;1.37;0.73;;;7.80;50.70;;;;;;5013764;28;46216;-66
2023/01/13 00:17:56;;;;;;;3.10;0.80;;;7.80;50.80;;;;;;5008816;28;46322;-66
2023/01/13 00:20:22;;;;;;;2.93;0.80;;;7.80;50.80;;;;;;5009658;28;46378;-65
2023/01/13 00:22:47;;;;;;;3.00;0.90;;;7.80;50.80;;;;;;5012902;28;46430;-65
2023/01/13 00:25:13;;;;;;;2.33;0.90;;;7.70;51.10;;;;;;5010972;28;46276;-65
2023/01/13 00:27:38;;;;;;;2.30;0.90;;;7.60;51.30;;;;;;5013469;28;46468;-66
2023/01/13 00:30:05;;;;;;;2.17;0.80;;;7.60;51.60;;;;;;5017876;28;45880;-65
2023/01/13 00:32:31;;;;;;;3.73;1.03;;;7.60;51.60;;;;;;5016194;28;47327;-66
2023/01/13 00:34:57;;;;;;;7.57;0.80;;;7.60;51.60;;;;;;5014066;28;46341;-66
2023/01/13 00:37:23;;;;;;;2.23;0.90;;;7.50;51.60;;;;;;5009486;28;46272;-66
2023/01/13 00:39:50;;;;;;;1.70;0.73;;;7.50;52.80;;;;;;5012538;28;46043;-66
2023/01/13 00:45:01;;;;;;;9.53;1.20;;;7.50;51.60;;;;;;5010674;28;46440;-65
2023/01/13 00:47:27;;;;;;;2.47;1.20;;;7.50;51.50;;;;;;5011456;28;46457;-65
2023/01/13 00:49:52;;;;;;;2.00;0.80;;;7.50;51.30;;;;;;5009838;28;46359;-65
2023/01/13 00:52:18;;;;;;;1.33;0.70;;;7.50;51.10;;;;;;5011152;28;46562;-65
2023/01/13 00:54:43;;;;;;;1.70;0.83;;;7.60;50.90;;;;;;5011611;28;45875;-66
2023/01/13 00:57:09;;;;;;;1.20;0.70;;;7.60;50.50;;;;;;5008246;28;46431;-66
2023/01/13 00:59:35;;;;;;;2.47;1.00;;;7.80;50.80;;;;;;5012149;28;46435;-66
2023/01/13 01:02:00;;;;;;;2.60;1.10;;;7.70;50.60;;;;;;5012010;28;46405;-66
2023/01/13 01:04:26;;;;;;;2.10;0.90;;;7.70;50.60;;;;;;5010486;28;46509;-66
2023/01/13 01:06:51;;;;;;;1.90;0.80;;;7.80;50.70;;;;;;5005435;28;46594;-66
2023/01/13 01:09:17;;;;;;;1.43;0.70;;;7.80;50.80;;;;;;5009368;28;46510;-66
2023/01/13 01:11:43;;;;;;;2.00;0.80;;;7.90;50.90;;;;;;5011347;28;47227;-66
2023/01/13 01:14:11;;;;;;;2.10;0.77;;;7.90;50.70;;;;;;5009833;28;46814;-66
2023/01/13 01:16:38;;;;;;;3.83;0.80;;;8.00;50.40;;;;;;5017147;28;46316;-66
2023/01/13 01:19:04;;;;;;;1.33;0.70;;;8.00;50.00;;;;;;5015119;28;46608;-66
2023/01/13 01:21:31;;;;;;;4.70;0.80;;;8.00;49.60;;;;;;5016062;28;46399;-66
2023/01/13 01:24:00;;;;;;;2.27;0.90;;;8.10;49.60;;;;;;5006604;28;46559;-66
2023/01/13 01:26:27;;;;;;;2.90;0.90;;;8.10;49.50;;;;;;5010194;28;46357;-65
2023/01/13 01:28:53;;;;;;;2.40;0.77;;;8.20;49.60;;;;;;5015226;28;46460;-66
2023/01/13 01:31:22;;;;;;;2.53;0.70;;;8.20;49.40;;;;;;5006806;28;46702;-66
2023/01/13 01:33:48;;;;;;;2.90;0.80;;;8.20;49.20;;;;;;5010673;28;46387;-66
2023/01/13 01:36:16;;;;;;;2.40;0.80;;;8.30;49.10;;;;;;5012370;28;46389;-66
2023/01/13 01:38:43;;;;;;;1.10;0.60;;;8.30;49.00;;;;;;5006242;28;46426;-66
2023/01/13 01:41:14;;;;;;;2.50;0.70;;;8.30;49.00;;;;;;5009066;28;47252;-66
2023/01/13 01:44:00;;;;;;;2.00;0.67;;;8.40;48.80;;;;;;5011282;28;45811;-66
2023/01/13 01:46:41;;;;;;;3.30;0.80;;;8.40;48.60;;;;;;5010190;28;46426;-66
2023/01/13 01:49:24;;;;;;;1.20;0.70;;;8.40;48.60;;;;;;5007316;28;46379;-66
2023/01/13 01:52:21;;;;;;;3.00;1.13;;;8.40;48.30;;;;;;5011153;28;47311;-65
2023/01/13 01:55:16;;;;;;;2.10;0.60;;;8.40;48.30;;;;;;5012590;28;46448;-66
2023/01/13 01:58:07;;;;;;;6.13;1.47;;;8.50;48.30;;;;;;5010803;28;46333;-65
2023/01/13 02:00:33;;;;;;;3.10;0.80;;;8.50;48.30;;;;;;5011153;28;46423;-66
2023/01/13 02:03:00;;;;;;;2.80;0.90;;;8.50;48.20;;;;;;5007235;28;46496;-66
2023/01/13 02:05:25;;;;;;;1.90;0.87;;;8.50;47.90;;;;;;5009967;28;46276;-66
2023/01/13 02:07:53;;;;;;;1.40;0.67;;;8.60;47.90;;;;;;5009680;28;46566;-66
2023/01/13 02:10:24;;;;;;;2.23;0.83;;;8.50;47.60;;;;;;5009590;28;46633;-65
2023/01/13 02:12:52;;;;;;;1.33;0.70;;;8.60;47.70;;;;;;5012732;28;46331;-66
2023/01/13 02:15:25;;;;;;;1.57;0.70;;;8.50;47.40;;;;;;5010977;28;46426;-66
2023/01/13 02:17:59;;;;;;;2.20;0.70;;;8.60;47.50;;;;;;5016344;28;46448;-66
2023/01/13 02:21:02;;;;;;;1.53;0.70;;;8.50;47.30;;;;;;5010798;28;46358;-66
2023/01/13 02:26:51;;;;;;;1.27;0.70;;;8.50;47.20;;;;;;5007832;28;45823;-65
2023/01/13 02:32:57;;;;;;;2.20;0.77;;;8.40;47.20;;;;;;5011667;28;45815;-66
2023/01/13 02:35:36;;;;;;;2.40;0.90;;;8.40;47.20;;;;;;5011010;28;46767;-65
2023/01/13 02:38:03;;;;;;;1.40;0.70;;;8.40;47.30;;;;;;5006959;28;46658;-66
2023/01/13 02:40:55;;;;;;;2.10;0.77;;;8.40;47.20;;;;;;5007698;28;46375;-66
2023/01/13 02:46:38;;;;;;;3.53;0.70;;;8.50;46.70;;;;;;5009997;28;46760;-65
2023/01/13 02:49:09;;;;;;;3.00;0.83;;;8.50;46.50;;;;;;5011346;28;46372;-66
2023/01/13 02:51:37;;;;;;;2.70;0.90;;;8.50;46.30;;;;;;5011832;28;46318;-65
2023/01/13 02:54:07;;;;;;;1.83;0.77;;;8.50;46.40;;;;;;5011541;28;46557;-65
2023/01/13 02:56:39;;;;;;;1.53;0.70;;;8.50;46.20;;;;;;5016684;28;47205;-66
2023/01/13 02:59:06;;;;;;;1.50;0.60;;;8.50;46.20;;;;;;5015800;28;46346;-66
2023/01/13 03:01:32;;;;;;;2.40;0.70;;;8.50;46.20;;;;;;5014337;28;46474;-65
2023/01/13 03:03:58;;;;;;;2.50;0.70;;;8.50;46.20;;;;;;5010962;28;46341;-65
2023/01/13 03:06:39;;;;;;;2.80;0.80;;;8.50;46.20;;;;;;5011346;28;46433;-65
2023/01/13 03:09:28;;;;;;;1.37;0.70;;;8.40;46.10;;;;;;5013088;28;46429;-66
2023/01/13 03:12:25;;;;;;;2.77;0.80;;;8.40;46.10;;;;;;5015426;28;45728;-64
2023/01/13 03:15:09;;;;;;;1.20;0.73;;;8.40;46.30;;;;;;5008905;28;46296;-64
2023/01/13 03:17:54;;;;;;;2.53;0.80;;;8.40;46.20;;;;;;5016892;28;46437;-64
2023/01/13 03:20:31;;;;;;;1.77;0.63;;;8.40;46.10;;;;;;5013655;28;46536;-66
2023/01/13 03:22:56;;;;;;;5.87;0.80;;;8.40;46.00;;;;;;5011631;28;46390;-66
2023/01/13 03:25:30;;;;;;;2.23;0.83;;;8.40;46.00;;;;;;5025629;28;46603;-66
2023/01/13 03:28:03;;;;;;;3.10;0.70;;;8.40;46.00;;;;;;5011106;28;46551;-65
2023/01/13 03:30:36;;;;;;;2.10;0.90;;;8.40;46.00;;;;;;5010694;28;46366;-66
2023/01/13 03:33:06;;;;;;;1.67;0.80;;;8.40;45.90;;;;;;5013530;28;46379;-65
2023/01/13 03:35:45;;;;;;;1.03;0.60;;;8.50;45.80;;;;;;5012887;28;46383;-66
2023/01/13 03:38:28;;;;;;;2.17;0.87;;;8.50;45.60;;;;;;5013336;28;46651;-65
2023/01/13 03:40:57;;;;;;;1.53;0.77;;;8.50;45.60;;;;;;5014082;28;46252;-65
2023/01/13 03:46:22;;;;;;;5.20;1.20;;;8.60;45.30;;;;;;5009562;28;46467;-66
2023/01/13 03:48:51;;;;;;;2.10;1.00;;;8.60;45.00;;;;;;5015402;28;47024;-65
2023/01/13 03:51:19;;;;;;;3.87;0.80;;;8.70;45.00;;;;;;5012306;28;46485;-65
2023/01/13 03:53:54;;;;;;;1.90;0.73;;;8.70;44.90;;;;;;5017703;28;46436;-65
2023/01/13 03:56:24;;;;;;;3.10;0.90;;;8.70;44.70;;;;;;5015638;28;46367;-66
2023/01/13 03:58:52;;;;;;;1.80;0.80;;;8.70;44.50;;;;;;5008021;28;48191;-65
2023/01/13 04:01:25;;;;;;;3.27;0.97;;;8.70;44.50;;;;;;5016023;28;46433;-65
2023/01/13 04:04:01;;;;;;;1.87;0.83;;;8.70;44.40;;;;;;5014863;28;46414;-66
2023/01/13 04:06:54;;;;;;;2.43;0.73;;;8.80;44.40;;;;;;5012298;28;46441;-66
2023/01/13 04:09:32;;;;;;;2.60;0.70;;;8.80;44.30;;;;;;5012590;28;46082;-66
2023/01/13 04:12:13;;;;;;;1.57;0.80;;;8.80;44.20;;;;;;5009513;28;46500;-65
2023/01/13 04:14:39;;;;;;;1.30;0.70;;;8.80;44.20;;;;;;5012936;28;46433;-65
2023/01/13 04:17:05;;;;;;;1.87;0.80;;;8.90;44.00;;;;;;5012972;28;46059;-65
2023/01/13 04:19:31;;;;;;;3.00;0.70;;;8.90;43.90;;;;;;5010695;28;46429;-65
2023/01/13 04:21:58;;;;;;;1.40;0.70;;;8.90;43.80;;;;;;5010627;28;45903;-66
2023/01/13 04:24:24;;;;;;;1.37;0.70;;;9.00;43.80;;;;;;5012235;28;46648;-66
2023/01/13 04:26:50;;;;;;;2.27;0.83;;;9.00;43.70;;;;;;5009406;28;46624;-65
2023/01/13 04:29:15;;;;;;;2.00;0.80;;;9.10;43.60;;;;;;5011580;28;45976;-65
2023/01/13 04:31:41;;;;;;;2.40;0.73;;;9.10;43.50;;;;;;5011220;28;46490;-65
2023/01/13 04:34:09;;;;;;;1.50;0.70;;;9.10;43.40;;;;;;5013311;28;46438;-65
2023/01/13 04:36:34;;;;;;;2.07;0.87;;;9.10;43.40;;;;;;5011624;28;46338;-65
2023/01/13 04:39:00;;;;;;;1.80;0.90;;;9.20;43.50;;;;;;5010430;28;46383;-65
2023/01/13 04:41:26;;;;;;;1.67;0.70;;;9.20;43.40;;;;;;5014303;28;46427;-65
2023/01/13 04:43:52;;;;;;;2.17;0.80;;;9.20;43.40;;;;;;5012636;28;46343;-65
2023/01/13 04:46:17;;;;;;;1.50;0.80;;;9.20;43.30;;;;;;5013665;28;46480;-65
2023/01/13 04:48:43;;;;;;;7.10;1.00;;;9.30;43.30;;;;;;5013690;28;47351;-64
2023/01/13 04:51:08;;;;;;;3.37;0.90;;;9.30;43.30;;;;;;5004954;28;46615;-66
2023/01/13 04:53:34;;;;;;;1.70;0.70;;;9.30;43.10;;;;;;5013130;28;46311;-66
2023/01/13 04:55:59;;;;;;;3.43;1.00;;;9.30;43.10;;;;;;5014847;28;46644;-65
2023/01/13 04:58:25;;;;;;;1.63;0.73;;;9.30;43.00;;;;;;5011294;28;46366;-63
2023/01/13 05:00:51;;;;;;;4.50;1.17;;;9.40;43.00;;;;;;5018808;28;46635;-66
2023/01/13 05:03:17;;;;;;;3.83;1.10;;;9.40;42.90;;;;;;5015371;28;46445;-65
2023/01/13 05:05:43;;;;;;;2.43;0.90;;;9.40;42.80;;;;;;5010782;28;46380;-65
2023/01/13 05:08:09;;;;;;;1.43;0.70;;;9.40;42.70;;;;;;5011699;28;46614;-65
2023/01/13 05:10:34;;;;;;;1.77;0.93;;;9.40;42.60;;;;;;5011134;28;46332;-65
2023/01/13 05:16:58;;;;;;;3.20;0.70;;;9.50;42.70;;;;;;5008416;28;45776;-65
2023/01/13 05:18:45;;;;;;;1.40;0.80;;;9.50;42.70;;;;;;5014053;28;46364;-65
2023/01/13 05:25:20;;;;;;;2.50;0.70;;;9.50;42.70;;;;;;5013642;28;46314;-66
2023/01/13 05:26:40;;;;;;;3.13;0.90;;;9.50;42.50;;;;;;5010426;28;46492;-65
2023/01/13 05:29:06;;;;;;;4.13;0.77;;;9.50;42.50;;;;;;5009666;28;46445;-65
2023/01/13 05:31:31;;;;;;;2.37;1.10;;;9.50;42.50;;;;;;5010729;28;45868;-65
2023/01/13 05:33:57;;;;;;;1.37;0.70;;;9.50;42.70;;;;;;5010223;28;45809;-65
2023/01/13 05:36:22;;;;;;;1.60;0.70;;;9.40;42.60;;;;;;5013395;28;46360;-65
2023/01/13 05:38:50;;;;;;;2.20;0.80;;;9.40;42.70;;;;;;5012030;28;46533;-65
2023/01/13 05:44:00;;;;;;;3.00;1.00;;;9.30;43.20;;;;;;5007505;28;46395;-65
2023/01/13 05:46:25;;;;;;;1.40;0.70;;;9.10;43.30;;;;;;5006870;28;46925;-65
2023/01/13 05:48:51;;;;;;;1.67;0.80;;;9.00;43.70;;;;;;5008982;28;48073;-65
2023/01/13 05:51:18;;;;;;;2.10;0.80;;;8.90;43.80;;;;;;5006973;28;46407;-65
2023/01/13 05:53:44;;;;;;;1.23;0.70;;;8.90;44.00;;;;;;5010730;28;46397;-65
2023/01/13 05:56:10;;;;;;;2.13;0.80;;;8.90;43.90;;;;;;5012734;28;46510;-66
2023/01/13 05:58:36;;;;;;;1.60;0.70;;;9.00;43.90;;;;;;5008623;28;46351;-65
2023/01/13 06:01:04;;;;;;;1.87;0.60;;;9.00;43.90;;;;;;5006638;28;45864;-66
2023/01/13 06:03:30;;;;;;;1.30;0.77;;;9.10;43.70;;;;;;5008416;28;46591;-66
2023/01/13 06:05:58;;;;;;;1.60;0.77;;;9.10;43.60;;;;;;5011316;28;46577;-66
2023/01/13 06:08:24;;;;;;;2.00;0.80;;;9.20;43.80;;;;;;5014771;28;46404;-66
2023/01/13 06:10:50;;;;;;;2.40;0.90;;;9.30;43.90;;;;;;5011193;28;46382;-66
2023/01/13 06:13:15;;;;;;;1.93;0.87;;;9.10;43.90;;;;;;5011363;28;46380;-66
2023/01/13 06:15:41;;;;;;;4.87;0.93;;;9.10;44.20;;;;;;5010374;28;46379;-65
2023/01/13 06:18:07;;;;;;;2.17;1.10;;;9.00;44.40;;;;;;5012323;28;46335;-65
2023/01/13 06:20:33;;;;;;;4.10;0.90;;;9.10;44.60;;;;;;5011236;28;46378;-65
2023/01/13 06:22:59;;;;;;;2.03;0.93;;;9.10;44.80;;;;;;5013222;28;46430;-65
2023/01/13 06:25:43;;;;;;;4.97;0.77;;;9.10;44.90;;;;;;5011412;28;46560;-66
2023/01/13 06:28:09;;;;;;;2.13;0.83;;;9.10;44.90;;;;;;5016920;28;46716;-65
2023/01/13 06:30:38;;;;;;;3.97;1.00;;;9.10;45.10;;;;;;5015829;28;46368;-65
2023/01/13 06:33:09;;;;;;;2.87;0.70;;;9.10;45.10;;;;;;5013287;28;46391;-66
2023/01/13 06:35:37;;;;;;;1.60;0.80;;;9.10;45.20;;;;;;5012600;28;46432;-65
2023/01/13 06:38:06;;;;;;;2.17;0.80;;;9.10;45.10;;;;;;5011800;28;46688;-65
2023/01/13 06:40:31;;;;;;;1.50;0.80;;;9.20;45.30;;;;;;5014025;28;45842;-67
2023/01/13 06:43:16;;;;;;;2.70;0.80;;;9.20;45.20;;;;;;5014842;28;46445;-67
2023/01/13 06:45:46;;;;;;;1.20;0.60;;;9.20;45.40;;;;;;5018455;28;45839;-66
2023/01/13 06:48:13;;;;;;;1.57;0.70;;;9.10;45.20;;;;;;5013598;28;46446;-65
2023/01/13 06:50:38;;;;;;;1.40;0.80;;;9.20;45.30;;;;;;5012700;28;46359;-65
2023/01/13 06:53:04;;;;;;;1.30;0.70;;;9.10;45.30;;;;;;5011361;28;46382;-66
2023/01/13 06:55:30;;;;;;;3.20;1.20;;;9.10;45.40;;;;;;5013864;28;45849;-65
2023/01/13 06:57:57;;;;;;;1.50;0.87;;;9.10;45.50;;;;;;5011711;28;46291;-66
2023/01/13 07:00:24;;;;;;;1.60;0.93;;;9.20;45.50;;;;;;5017009;28;46426;-66
2023/01/13 07:02:50;;;;;;;1.80;0.70;;;9.20;45.40;;;;;;5012345;28;46618;-65
2023/01/13 07:05:17;;;;;;;1.30;0.70;;;9.30;45.30;;;;;;5016435;28;46425;-66
2023/01/13 07:07:43;;;;;;;1.70;0.80;;;9.30;45.00;;;;;;5004918;28;46550;-65
2023/01/13 07:10:12;;;;;;;1.37;0.70;;;9.40;45.20;;;;;;5012184;28;45819;-64
2023/01/13 07:15:23;;;;;;;4.07;0.90;;;9.40;44.90;;;;;;5015251;28;46776;-64
2023/01/13 07:17:49;;;;;;;1.83;0.77;;;9.40;44.80;;;;;;5009064;28;47845;-64
2023/01/13 07:20:15;;;;;;;2.03;0.90;;;9.40;44.80;;;;;;5011877;28;46387;-63
2023/01/13 07:22:41;;;;;;;1.87;0.90;;;9.40;44.70;;;;;;5012145;28;46504;-64
2023/01/13 07:25:07;;;;;;;4.00;0.80;;;9.40;44.60;;;;;;5014278;28;46376;-65
2023/01/13 07:27:33;;;;;;;1.60;0.80;;;9.40;44.50;;;;;;5013678;28;46673;-63
2023/01/13 07:29:58;;;;;;;3.63;1.10;;;9.50;44.60;;;;;;5015523;28;46419;-64
2023/01/13 07:32:24;;;;;;;1.70;0.93;;;9.50;44.50;;;;;;5011141;28;46385;-63
2023/01/13 07:34:50;;;;;;;1.93;0.80;;;9.60;44.60;;;;;;5012288;28;46467;-64
2023/01/13 07:37:15;;;;;;;4.93;1.00;;;9.50;44.40;;;;;;5014019;28;46382;-63
2023/01/13 07:39:41;;;;;;;1.67;0.77;;;9.50;44.50;;;;;;5010025;28;46423;-66
2023/01/13 07:44:52;;;;;;;1.57;0.77;;;9.50;44.50;;;;;;5012852;28;47009;-65
2023/01/13 07:47:22;;;;;;;1.40;0.70;;;9.50;44.60;;;;;;5008649;28;46254;-65
2023/01/13 07:49:47;;;;;;;1.63;0.70;;;9.50;44.70;;;;;;5006331;28;46541;-65
2023/01/13 07:52:13;;;;;;;3.07;1.00;;;9.50;44.80;;;;;;5011368;28;46409;-65
2023/01/13 07:54:39;;;;;;;26.73;11.70;;;9.50;44.80;;;;;;5013107;28;46359;-65
2023/01/13 07:57:04;;;;;;;2.30;0.90;;;9.50;44.90;;;;;;5012110;28;46470;-67
2023/01/13 07:59:30;;;;;;;1.70;0.70;;;9.50;45.00;;;;;;5011048;28;46640;-66
2023/01/13 08:01:55;;;;;;;1.30;0.70;;;9.50;44.70;;;;;;5011757;28;46378;-67
2023/01/13 08:04:21;;;;;;;1.80;0.80;;;9.60;44.80;;;;;;5011109;28;46123;-65
2023/01/13 08:06:47;;;;;;;2.60;1.17;;;9.60;44.80;;;;;;5007176;28;46378;-66
2023/01/13 08:09:13;;;;;;;2.50;1.20;;;9.60;44.50;;;;;;5012914;28;46642;-67
2023/01/13 08:11:38;;;;;;;7.40;0.93;;;9.60;44.50;;;;;;5009985;28;46352;-68
2023/01/13 08:14:04;;;;;;;3.00;1.40;;;9.70;44.40;;;;;;5008869;28;46148;-64
2023/01/13 08:16:32;;;;;;;2.43;1.13;;;9.70;44.40;;;;;;5007470;28;47064;-66
2023/01/13 08:18:58;;;;;;;3.13;1.00;;;9.80;44.30;;;;;;5010033;28;46276;-66
2023/01/13 08:21:24;;;;;;;2.07;1.20;;;9.80;44.30;;;;;;5011229;28;46395;-68
2023/01/13 08:23:49;;;;;;;1.90;0.80;;;9.80;44.00;;;;;;5007198;28;46526;-70
2023/01/13 08:26:17;;;;;;;2.50;1.30;;;9.90;44.20;;;;;;5016428;28;46021;-67
2023/01/13 08:28:44;;;;;;;3.40;1.30;;;9.90;44.20;;;;;;5011665;28;46463;-67
2023/01/13 08:31:12;;;;;;;8.00;2.50;;;9.90;44.00;;;;;;5015521;28;46448;-65
2023/01/13 08:33:39;;;;;;;3.07;1.77;;;9.90;43.90;;;;;;5009700;28;46547;-70
2023/01/13 08:36:06;;;;;;;2.27;1.10;;;9.90;43.80;;;;;;5011406;28;46369;-68
2023/01/13 08:38:33;;;;;;;2.60;1.20;;;10.00;43.00;;;;;;5009458;28;46424;-68
2023/01/13 08:40:59;;;;;;;2.53;0.90;;;10.00;43.00;;;;;;5010195;28;46363;-67
2023/01/13 08:43:25;;;;;;;2.00;1.03;;;10.00;42.70;;;;;;5008457;28;45920;-67
2023/01/13 08:46:03;;;;;;;3.00;0.97;;;10.10;42.70;;;;;;5011922;28;46728;-69
2023/01/13 08:48:29;;;;;;;2.60;1.13;;;10.10;42.50;;;;;;5008506;28;46270;-67
2023/01/13 08:51:02;;;;;;;3.63;1.00;;;10.10;42.50;;;;;;5007879;28;46688;-66
2023/01/13 08:53:27;;;;;;;1.80;0.80;;;10.10;42.40;;;;;;5005226;28;46827;-68
2023/01/13 08:55:53;;;;;;;2.43;0.83;;;10.10;42.40;;;;;;5008431;28;46411;-67
2023/01/13 08:58:18;;;;;;;1.50;0.80;;;10.20;42.30;;;;;;5010276;28;46283;-65
2023/01/13 09:00:44;;;;;;;2.70;0.90;;;10.20;42.20;;;;;;5011413;28;46429;-67
2023/01/13 09:03:10;;;;;;;1.67;0.80;;;10.20;42.20;;;;;;5007598;28;45898;-67
2023/01/13 09:05:35;;;;;;;3.47;1.07;;;10.20;42.00;;;;;;5009298;28;48143;-67
2023/01/13 09:08:01;;;;;;;1.50;0.90;;;10.30;42.00;;;;;;5015835;28;46742;-67
2023/01/13 09:10:27;;;;;;;3.40;0.80;;;10.30;42.00;;;;;;5015549;28;46425;-68
2023/01/13 09:13:11;;;;;;;3.07;0.97;;;10.30;42.00;;;;;;5014484;28;46910;-68
2023/01/13 09:15:37;;;;;;;1.43;0.77;;;10.30;42.00;;;;;;5015207;28;47137;-67
2023/01/13 09:18:03;;;;;;;2.30;1.00;;;10.40;41.90;;;;;;5016674;28;45827;-70
2023/01/13 09:20:28;;;;;;;5.63;1.00;;;10.40;41.70;;;;;;5017387;28;46589;-66
2023/01/13 09:22:54;;;;;;;1.40;0.73;;;10.40;41.60;;;;;;5016600;28;46640;-67
2023/01/13 09:25:20;;;;;;;3.87;1.10;;;10.30;41.90;;;;;;5016326;28;46455;-65
2023/01/13 09:27:45;;;;;;;2.10;1.00;;;10.20;42.20;;;;;;5016217;28;46788;-66
2023/01/13 09:30:11;;;;;;;3.70;1.10;;;10.10;42.20;;;;;;5016859;28;46438;-67
2023/01/13 09:32:39;;;;;;;3.20;1.10;;;10.10;42.30;;;;;;5016540;28;46441;-67
2023/01/13 09:35:06;;;;;;;1.30;0.70;;;10.10;42.20;;;;;;5015207;28;46754;-69
2023/01/13 09:37:35;;;;;;;3.57;0.90;;;10.00;42.40;;;;;;5016190;28;45864;-69
2023/01/13 09:40:04;;;;;;;2.97;1.03;;;10.00;42.50;;;;;;5016375;28;46526;-68
2023/01/13 09:45:56;;;;;;;3.20;0.80;;;10.10;42.40;;;;;;5016203;28;46527;-67
2023/01/13 09:48:30;;;;;;;1.30;0.70;;;10.30;42.10;;;;;;5015389;28;46390;-71
2023/01/13 09:51:08;;;;;;;2.77;1.00;;;10.40;41.90;;;;;;5041159;28;46295;-68
2023/01/13 09:53:42;;;;;;;2.20;0.90;;;10.50;41.40;;;;;;5016932;28;46505;-69
2023/01/13 09:56:10;;;;;;;2.63;0.90;;;10.60;41.30;;;;;;5018618;28;46303;-68
2023/01/13 09:58:35;;;;;;;1.80;0.80;;;10.70;41.40;;;;;;5018380;28;46007;-68
2023/01/13 10:01:19;;;;;;;1.73;0.70;;;10.80;41.10;;;;;;5019177;28;46422;-70
2023/01/13 10:03:45;;;;;;;6.00;0.90;;;10.70;41.10;;;;;;5018717;28;46466;-69
2023/01/13 10:06:16;;;;;;;1.40;0.80;;;10.80;40.90;;;;;;5018565;28;46338;-69
2023/01/13 10:08:43;;;;;;;1.80;0.90;;;10.90;40.90;;;;;;5016948;28;46488;-67
2023/01/13 10:14:10;;;;;;;2.53;0.80;;;11.40;39.70;;;;;;5022283;28;46351;-68
2023/01/13 10:16:41;;;;;;;2.97;1.77;;;11.60;39.80;;;;;;5017623;28;46469;-69
2023/01/13 10:19:21;;;;;;;3.33;0.90;;;11.70;39.20;;;;;;5018650;28;46296;-67
2023/01/13 10:21:59;;;;;;;3.13;0.90;;;11.70;39.00;;;;;;5018427;28;46363;-67
2023/01/13 10:24:49;;;;;;;1.93;0.80;;;11.60;38.90;;;;;;5019388;28;46492;-68
2023/01/13 10:27:33;;;;;;;4.50;0.90;;;11.50;38.90;;;;;;5017342;28;47595;-66
2023/01/13 10:30:11;;;;;;;1.67;0.70;;;11.50;39.30;;;;;;5018792;28;46410;-66
2023/01/13 10:32:36;;;;;;;2.43;1.00;;;11.40;38.90;;;;;;5018495;28;46499;-67
2023/01/13 10:35:05;;;;;;;6.33;0.80;;;11.40;39.40;;;;;;5018336;28;46567;-66
2023/01/13 10:37:31;;;;;;;1.50;0.73;;;11.40;39.40;;;;;;5017275;28;46749;-66
2023/01/13 10:40:00;;;;;;;1.40;0.67;;;11.50;39.20;;;;;;5018213;28;46449;-66
2023/01/13 10:42:26;;;;;;;1.70;0.70;;;11.50;39.20;;;;;;5016850;28;46809;-66
2023/01/13 10:44:53;;;;;;;1.40;0.73;;;11.40;39.10;;;;;;5017868;28;46620;-67
2023/01/13 10:47:31;;;;;;;1.63;0.80;;;11.40;39.40;;;;;;5016504;28;46643;-67
2023/01/13 10:50:26;;;;;;;2.97;0.80;;;11.30;39.70;;;;;;5018165;28;46444;-66
2023/01/13 10:52:57;;;;;;;1.70;0.80;;;11.40;39.50;;;;;;5014549;28;46787;-68
2023/01/13 10:55:25;;;;;;;2.17;0.70;;;11.30;39.60;;;;;;5015200;28;46903;-66
2023/01/13 10:57:51;;;;;;;1.90;0.80;;;11.20;39.60;;;;;;5018227;28;46480;-67
2023/01/13 11:00:25;;;;;;;2.77;0.80;;;11.10;39.40;;;;;;5017284;28;46646;-67
2023/01/13 11:03:12;;;;;;;1.90;0.90;;;11.30;39.60;;;;;;5016757;28;45831;-67
2023/01/13 11:05:38;;;;;;;2.20;0.90;;;11.40;39.70;;;;;;5016558;28;46712;-65
2023/01/13 11:08:04;;;;;;;1.83;1.23;;;11.40;39.70;;;;;;5017243;28;47074;-65
2023/01/13 11:10:32;;;;;;;1.73;0.70;;;11.50;39.80;;;;;;5017910;28;46719;-66
2023/01/13 11:13:16;;;;;;;4.13;1.13;;;11.60;39.80;;;;;;5016298;28;46616;-66
2023/01/13 11:15:57;;;;;;;2.03;0.80;;;11.60;39.90;;;;;;5016717;28;46377;-67
2023/01/13 11:19:01;;;;;;;1.93;1.00;;;11.50;39.80;;;;;;5018147;28;46078;-65
2023/01/13 11:21:41;;;;;;;2.50;0.90;;;11.40;39.70;;;;;;5015795;28;45876;-65
2023/01/13 11:24:13;;;;;;;1.80;0.90;;;11.30;39.60;;;;;;5016244;28;46362;-68
2023/01/13 11:27:03;;;;;;;13.30;1.13;;;11.20;39.70;;;;;;5019043;28;46383;-68
2023/01/13 11:29:43;;;;;;;3.47;0.90;;;11.20;40.10;;;;;;5018074;28;47052;-68
2023/01/13 11:32:18;;;;;;;3.30;1.13;;;11.10;40.30;;;;;;5016726;28;46477;-67
2023/01/13 11:34:51;;;;;;;3.87;0.90;;;11.10;40.50;;;;;;5017344;28;46473;-68
2023/01/13 11:37:39;;;;;;;3.30;0.93;;;11.10;40.60;;;;;;5017127;28;46485;-66
2023/01/13 11:40:17;;;;;;;1.73;0.77;;;11.10;40.70;;;;;;5017087;28;46628;-68
2023/01/13 11:43:02;;;;;;;3.73;1.17;;;11.10;40.90;;;;;;5017588;28;46446;-66
2023/01/13 11:45:40;;;;;;;3.03;1.10;;;11.10;40.90;;;;;;5016869;28;46475;-67
2023/01/13 11:48:16;;;;;;;1.90;1.10;;;11.10;41.10;;;;;;5017172;28;46412;-67
2023/01/13 11:51:03;;;;;;;3.60;1.00;;;11.20;41.10;;;;;;5016473;28;47171;-67
2023/01/13 11:53:37;;;;;;;2.03;0.90;;;11.20;41.20;;;;;;5015251;28;46214;-67
2023/01/13 11:56:23;;;;;;;2.80;1.10;;;11.20;41.10;;;;;;5014910;28;46784;-66
2023/01/13 11:58:54;;;;;;;2.73;1.40;;;11.40;40.90;;;;;;5017205;28;46583;-68
2023/01/13 12:01:38;;;;;;;1.73;0.87;;;11.60;40.60;;;;;;5017383;28;46839;-67
2023/01/13 12:04:22;;;;;;;1.90;1.00;;;11.60;40.90;;;;;;5016102;28;46811;-66
2023/01/13 12:07:12;;;;;;;2.57;1.10;;;11.50;41.20;;;;;;5015086;28;46361;-67
2023/01/13 12:10:04;;;;;;;1.50;0.90;;;11.50;41.40;;;;;;5024028;28;46501;-67
2023/01/13 12:12:54;;;;;;;2.57;0.83;;;11.60;41.10;;;;;;5015149;28;47009;-67
2023/01/13 12:15:20;;;;;;;1.67;0.80;;;11.70;41.10;;;;;;5015643;28;46889;-67
2023/01/13 12:17:45;;;;;;;2.33;1.00;;;11.70;41.10;;;;;;5016688;28;46299;-67
2023/01/13 12:20:39;;;;;;;2.67;0.90;;;11.60;41.10;;;;;;5016276;28;46498;-68
2023/01/13 12:23:22;;;;;;;10.23;5.93;;;11.80;41.30;;;;;;5015336;28;46982;-68
2023/01/13 12:26:00;;;;;;;11.73;5.30;;;11.90;41.00;;;;;;5016083;28;46798;-68
2023/01/13 12:28:38;;;;;;;8.43;4.57;;;11.60;41.50;;;;;;5016582;28;46447;-66
2023/01/13 12:31:06;;;;;;;10.40;4.80;;;11.30;42.30;;;;;;5015443;28;46749;-65
2023/01/13 12:34:06;;;;;;;5.87;3.40;;;11.10;42.80;;;;;;5015310;28;46674;-65
2023/01/13 12:36:45;;;;;;;7.10;2.67;;;11.20;42.90;;;;;;4995120;28;46651;-66
2023/01/13 12:39:11;;;;;;;3.00;1.73;;;11.30;42.70;;;;;;5014840;28;46498;-66
2023/01/13 12:44:34;;;;;;;3.43;1.00;;;11.20;42.60;;;;;;5009366;28;46393;-66
2023/01/13 12:47:00;;;;;;;1.70;0.80;;;11.40;42.30;;;;;;5014600;28;46465;-67
2023/01/13 12:49:35;;;;;;;2.90;1.70;;;11.60;42.10;;;;;;5016390;28;46438;-68
2023/01/13 12:52:14;;;;;;;4.37;1.67;;;11.50;42.10;;;;;;5016717;28;46371;-67
2023/01/13 12:54:39;;;;;;;1.63;1.03;;;11.50;42.10;;;;;;5016641;28;46934;-66
2023/01/13 12:57:25;;;;;;;1.87;0.97;;;11.50;42.20;;;;;;5016673;28;47337;-67
2023/01/13 13:00:04;;;;;;;3.20;1.30;;;11.40;42.20;;;;;;5017564;28;46420;-67
2023/01/13 13:02:38;;;;;;;3.30;1.87;;;11.50;42.30;;;;;;5017816;28;46347;-66
2023/01/13 13:05:26;;;;;;;4.97;2.10;;;11.40;42.40;;;;;;5016389;28;46626;-66
2023/01/13 13:08:19;;;;;;;5.20;2.53;;;11.30;42.50;;;;;;5012806;28;46361;-66
2023/01/13 13:13:57;;;;;;;3.10;1.00;;;11.30;42.70;;;;;;5012758;28;46525;-67
2023/01/13 13:16:25;;;;;;;1.70;0.80;;;11.20;42.80;;;;;;5017027;28;46397;-66
2023/01/13 13:19:11;;;;;;;1.40;0.70;;;11.20;42.80;;;;;;5016189;28;46459;-66
2023/01/13 13:22:11;;;;;;;1.40;0.80;;;11.20;42.70;;;;;;5017138;28;45922;-65
2023/01/13 13:24:42;;;;;;;2.80;0.80;;;11.20;42.80;;;;;;5016212;28;46495;-66
2023/01/13 13:27:26;;;;;;;4.40;1.20;;;11.10;42.70;;;;;;5016323;28;46335;-67
2023/01/13 13:29:57;;;;;;;2.93;0.80;;;11.00;42.80;;;;;;5016849;28;46312;-66
2023/01/13 13:33:00;;;;;;;1.63;0.80;;;11.10;42.90;;;;;;5016863;28;46505;-67
2023/01/13 13:35:26;;;;;;;1.40;0.60;;;11.20;42.40;;;;;;5016562;28;46417;-66
2023/01/13 13:46:48;;;;;;;4.20;0.70;;;6.40;61.10;;;;;;5016987;28;46588;-66
2023/01/13 13:49:20;;;;;;;1.40;0.70;;;6.00;65.80;;;;;;5016553;28;48006;-66
2023/01/13 13:52:02;;;;;;;1.73;0.60;;;6.00;66.40;;;;;;5017068;28;46100;-67
2023/01/13 13:54:29;;;;;;;1.20;0.60;;;6.10;66.10;;;;;;5017225;28;46361;-66
2023/01/13 13:56:55;;;;;;;4.90;0.70;;;6.20;66.10;;;;;;5016469;28;46354;-67
2023/01/13 13:59:23;;;;;;;1.63;0.60;;;6.20;65.70;;;;;;5015947;28;47142;-65
2023/01/13 14:01:59;;;;;;;1.23;0.60;;;6.20;66.90;;;;;;5015948;28;46417;-67
2023/01/13 14:04:29;;;;;;;1.37;0.67;;;6.20;67.00;;;;;;5017395;28;46476;-67